Time;durP1;ratioP1;P1;durP2;ratioP2;P2;SDS_P1;SDS_P2;PMS_P1;PMS_P2;Temp;Humidity;BMP_temperature;BMP_pressure;BME280_temperature;BME280_humidity;BME280_pressure;Samples;Min_cycle;Max_cycle;Signal;HPM_P1;HPM_P2
2022/07/20 04:07:00;;;;;;;7.85;3.15;;;24.40;55.90;;;;;;5444403;23;20065;-74
2022/07/20 04:09:44;;;;;;;3.63;2.85;;;24.30;54.90;;;;;;4868230;29;20072;-75
2022/07/20 04:12:13;;;;;;;3.47;2.90;;;24.30;53.80;;;;;;4869023;29;20128;-74
2022/07/20 04:14:39;;;;;;;6.00;3.10;;;24.20;53.20;;;;;;4868042;29;20120;-74
2022/07/20 04:17:05;;;;;;;5.90;3.30;;;24.20;52.60;;;;;;4869442;29;20064;-76
2022/07/20 04:19:31;;;;;;;5.95;3.17;;;24.20;52.30;;;;;;4852563;29;20472;-73
2022/07/20 04:21:58;;;;;;;6.15;3.58;;;24.10;51.40;;;;;;4868461;29;20135;-75
2022/07/20 04:24:25;;;;;;;6.43;3.38;;;24.10;50.60;;;;;;4868780;29;20061;-74
2022/07/20 04:26:51;;;;;;;7.50;3.80;;;24.10;50.60;;;;;;4868903;29;20475;-75
2022/07/20 04:29:17;;;;;;;6.50;3.45;;;24.10;50.60;;;;;;4868419;29;20192;-75
2022/07/20 06:21:19;;;;;;;9.55;4.20;;;23.90;55.40;;;;;;4830904;29;20062;-72
2022/07/20 06:23:45;;;;;;;7.03;3.65;;;23.90;56.20;;;;;;4827907;29;20046;-72
2022/07/20 06:26:11;;;;;;;7.05;3.97;;;24.00;56.30;;;;;;4827058;29;20046;-72
2022/07/20 06:28:37;;;;;;;15.55;4.95;;;24.00;56.50;;;;;;4826327;29;20058;-72
2022/07/20 06:31:03;;;;;;;9.57;5.03;;;24.00;56.70;;;;;;4827001;29;20050;-72
2022/07/20 06:33:29;;;;;;;9.43;4.82;;;24.00;57.00;;;;;;4827144;29;20140;-72
2022/07/20 06:35:55;;;;;;;15.48;6.32;;;24.00;57.20;;;;;;4826831;29;20054;-73
2022/07/20 06:38:21;;;;;;;15.20;5.82;;;24.00;57.50;;;;;;4826889;29;20527;-73
2022/07/20 06:40:46;;;;;;;13.43;5.80;;;24.10;58.20;;;;;;4826803;29;20100;-72
2022/07/20 06:43:12;;;;;;;15.10;6.03;;;24.10;58.50;;;;;;4826457;29;20058;-73
2022/07/20 06:45:38;;;;;;;11.75;5.45;;;24.10;58.80;;;;;;4827530;29;20050;-72
2022/07/20 06:48:04;;;;;;;8.77;5.45;;;24.10;59.20;;;;;;4826786;29;20050;-72
2022/07/20 06:50:29;;;;;;;12.00;6.13;;;24.20;59.50;;;;;;4826500;29;20053;-73
2022/07/20 06:52:55;;;;;;;11.75;6.28;;;24.20;59.80;;;;;;4827083;29;20050;-76
2022/07/20 06:55:22;;;;;;;11.80;6.28;;;24.20;60.00;;;;;;4826352;29;20050;-73
2022/07/20 06:57:47;;;;;;;10.98;6.25;;;24.20;60.20;;;;;;4826677;29;20061;-72
2022/07/20 07:00:13;;;;;;;13.80;7.35;;;24.20;60.30;;;;;;4826540;29;20054;-73
2022/07/20 07:02:40;;;;;;;12.10;7.63;;;24.20;60.50;;;;;;4826809;29;20054;-73
2022/07/20 07:05:06;;;;;;;12.85;7.90;;;24.30;60.90;;;;;;4826810;29;20046;-73
2022/07/20 07:07:32;;;;;;;9.77;7.15;;;24.30;61.20;;;;;;4826576;29;20143;-73
2022/07/20 07:09:58;;;;;;;10.43;7.43;;;24.30;61.40;;;;;;4826518;29;20137;-73
2022/07/20 07:12:24;;;;;;;12.27;7.90;;;24.30;61.60;;;;;;4827182;29;20050;-73
2022/07/20 07:14:50;;;;;;;12.90;7.97;;;24.30;61.80;;;;;;4827924;29;20065;-73
2022/07/20 07:17:16;;;;;;;12.60;7.93;;;24.30;62.00;;;;;;4828961;29;20057;-74
2022/07/20 07:19:42;;;;;;;11.35;8.82;;;24.40;62.30;;;;;;4843607;29;20099;-73
2022/07/20 07:22:09;;;;;;;13.05;8.98;;;24.30;62.50;;;;;;4843533;29;20058;-73
2022/07/20 07:24:35;;;;;;;12.20;8.88;;;24.30;62.80;;;;;;4839899;29;20053;-73
2022/07/20 07:27:01;;;;;;;14.98;9.05;;;24.40;63.00;;;;;;4826617;29;20086;-72
2022/07/20 07:29:26;;;;;;;11.15;9.05;;;24.40;63.20;;;;;;4826119;29;20109;-73
2022/07/20 07:31:58;;;;;;;18.83;10.25;;;24.40;63.50;;;;;;4834977;29;20054;-74
2022/07/20 07:34:25;;;;;;;22.35;11.38;;;24.40;63.90;;;;;;4844690;29;20056;-72
2022/07/20 07:36:51;;;;;;;15.75;12.02;;;24.40;64.20;;;;;;4844433;29;20125;-73
2022/07/20 07:39:17;;;;;;;19.45;11.50;;;24.50;64.60;;;;;;4844442;29;20068;-73
2022/07/20 07:41:43;;;;;;;19.33;12.48;;;24.50;64.70;;;;;;4844732;29;20450;-72
2022/07/20 07:44:09;;;;;;;22.88;13.88;;;24.50;65.50;;;;;;4844189;29;20097;-73
2022/07/20 07:46:35;;;;;;;17.60;11.68;;;24.50;65.00;;;;;;4843721;29;20089;-74
2022/07/20 07:49:02;;;;;;;16.92;12.18;;;24.50;65.00;;;;;;4826771;29;20046;-73
2022/07/20 07:51:27;;;;;;;17.42;11.32;;;24.50;65.00;;;;;;4809898;29;20093;-73
2022/07/20 07:53:53;;;;;;;17.85;13.15;;;24.60;64.90;;;;;;4833245;29;20094;-73
2022/07/20 07:56:19;;;;;;;16.10;12.90;;;24.60;65.00;;;;;;4834945;29;20062;-73
2022/07/20 07:58:45;;;;;;;19.38;13.88;;;24.60;65.10;;;;;;4844067;29;20069;-74
2022/07/20 08:01:11;;;;;;;19.67;14.18;;;24.60;65.30;;;;;;4827788;29;20347;-73
2022/07/20 08:03:36;;;;;;;20.63;15.13;;;24.60;65.40;;;;;;4826083;29;20085;-73
2022/07/20 08:06:04;;;;;;;16.88;12.38;;;24.70;65.70;;;;;;4825980;29;20451;-73
2022/07/20 08:08:30;;;;;;;19.10;13.55;;;24.70;65.50;;;;;;4819040;29;20054;-73
2022/07/20 08:10:56;;;;;;;17.55;13.60;;;24.70;65.40;;;;;;4844627;29;20050;-73
2022/07/20 08:13:22;;;;;;;23.33;16.00;;;24.70;65.30;;;;;;4844041;29;20110;-73
2022/07/20 08:15:48;;;;;;;22.00;15.23;;;24.70;65.40;;;;;;4844247;29;20453;-73
2022/07/20 08:18:13;;;;;;;20.63;16.27;;;24.70;65.60;;;;;;4810092;29;20488;-72
2022/07/20 08:20:39;;;;;;;25.77;17.92;;;24.70;65.80;;;;;;4825196;29;20066;-73
2022/07/20 08:23:05;;;;;;;25.63;17.63;;;24.80;66.00;;;;;;4825293;29;20059;-73
2022/07/20 08:25:32;;;;;;;25.23;17.17;;;24.80;66.20;;;;;;4826198;29;20050;-75
2022/07/20 08:28:12;;;;;;;23.85;16.50;;;24.80;66.30;;;;;;4824061;29;20054;-74
2022/07/20 08:30:40;;;;;;;24.52;17.95;;;24.80;66.40;;;;;;4825735;29;20050;-72
2022/07/20 08:33:06;;;;;;;22.25;16.35;;;24.90;66.30;;;;;;4825270;29;20039;-75
2022/07/20 08:35:32;;;;;;;21.48;17.15;;;24.90;66.30;;;;;;4827444;29;20110;-72
2022/07/20 08:37:57;;;;;;;20.48;17.13;;;24.90;66.10;;;;;;4828873;29;20411;-73
2022/07/20 08:40:24;;;;;;;25.23;17.90;;;24.90;66.10;;;;;;4829144;29;20188;-74
2022/07/20 08:42:50;;;;;;;25.35;19.42;;;24.90;65.90;;;;;;4837758;29;20041;-74
2022/07/20 08:45:16;;;;;;;26.60;19.73;;;24.90;65.80;;;;;;4842399;29;20068;-73
2022/07/20 08:47:44;;;;;;;24.20;21.10;;;24.90;65.90;;;;;;4828430;29;20054;-75
2022/07/20 08:50:11;;;;;;;29.42;20.67;;;24.90;65.90;;;;;;4828535;29;20056;-73
2022/07/20 08:52:37;;;;;;;28.08;21.55;;;24.90;66.00;;;;;;4828606;29;20085;-74
2022/07/20 08:55:04;;;;;;;28.77;20.92;;;24.90;66.00;;;;;;4828068;29;20485;-73
2022/07/20 08:57:31;;;;;;;29.33;20.55;;;24.90;66.20;;;;;;4828404;29;20050;-73
2022/07/20 08:59:58;;;;;;;33.08;21.98;;;24.90;66.00;;;;;;4828682;29;20133;-74
2022/07/20 09:02:24;;;;;;;29.98;19.80;;;24.90;66.10;;;;;;4828343;29;20085;-73
2022/07/20 09:04:58;;;;;;;26.70;18.75;;;24.90;65.70;;;;;;4828410;29;20137;-74
2022/07/20 09:07:42;;;;;;;24.33;18.60;;;24.90;65.10;;;;;;4828386;29;20191;-73
2022/07/20 09:10:14;;;;;;;23.98;16.92;;;24.90;65.30;;;;;;4828131;29;20057;-74
2022/07/20 09:13:01;;;;;;;22.92;16.60;;;24.90;65.40;;;;;;4828664;29;20053;-74
2022/07/20 09:15:45;;;;;;;21.77;16.90;;;24.90;65.40;;;;;;4828637;29;20050;-73
2022/07/20 09:18:31;;;;;;;22.08;16.30;;;24.90;66.00;;;;;;4828460;29;20081;-73
2022/07/20 09:20:58;;;;;;;22.88;15.93;;;24.90;65.60;;;;;;4826532;29;20062;-74
2022/07/20 09:23:33;;;;;;;23.20;15.57;;;24.90;65.30;;;;;;4827610;29;20362;-78
2022/07/20 09:26:02;;;;;;;21.65;14.63;;;24.90;65.30;;;;;;4827967;29;20061;-73
2022/07/20 09:28:46;;;;;;;22.77;14.07;;;24.90;65.30;;;;;;4827860;29;20122;-73
2022/07/20 09:31:30;;;;;;;21.67;15.05;;;24.80;65.30;;;;;;4828090;29;20054;-73
2022/07/20 09:34:03;;;;;;;22.25;15.88;;;24.90;65.40;;;;;;4811931;29;20054;-74
2022/07/20 09:36:35;;;;;;;18.75;13.98;;;24.90;65.30;;;;;;4812549;29;20058;-74
2022/07/20 09:39:11;;;;;;;21.30;14.82;;;24.90;66.10;;;;;;4812234;29;20126;-74
2022/07/20 09:41:39;;;;;;;32.08;14.80;;;25.00;66.40;;;;;;4828130;29;20407;-76
2022/07/20 09:44:07;;;;;;;22.80;15.50;;;25.10;66.70;;;;;;4827842;29;20057;-75
2022/07/20 09:46:35;;;;;;;24.95;14.00;;;25.10;67.00;;;;;;4827450;29;20058;-74
2022/07/20 09:49:06;;;;;;;22.98;14.27;;;25.20;65.20;;;;;;4827731;29;20046;-78
2022/07/20 09:51:41;;;;;;;19.45;12.73;;;25.20;64.50;;;;;;4843936;29;20045;-76
2022/07/20 09:54:12;;;;;;;17.60;12.38;;;25.20;64.60;;;;;;4846624;29;20199;-75
2022/07/20 09:56:40;;;;;;;18.10;12.25;;;25.30;64.50;;;;;;4845941;29;20050;-75
2022/07/20 09:59:10;;;;;;;18.95;12.25;;;25.30;64.60;;;;;;4826689;29;20069;-75
2022/07/20 10:01:39;;;;;;;22.30;11.73;;;25.40;63.60;;;;;;4826930;29;20060;-75
2022/07/20 10:04:08;;;;;;;18.95;10.75;;;25.40;62.50;;;;;;4827755;29;20050;-76
2022/07/20 10:06:36;;;;;;;15.82;10.13;;;25.40;62.90;;;;;;4830961;29;20083;-75
2022/07/20 10:09:03;;;;;;;15.18;10.68;;;25.40;62.10;;;;;;4829259;29;20403;-73
2022/07/20 10:11:30;;;;;;;22.30;11.13;;;25.40;62.10;;;;;;4827158;29;20121;-73
2022/07/20 10:13:59;;;;;;;18.98;11.70;;;25.40;62.90;;;;;;4828153;29;20403;-73
2022/07/20 10:16:39;;;;;;;15.20;10.90;;;25.40;63.80;;;;;;4827829;29;20065;-73
2022/07/20 10:19:07;;;;;;;17.20;10.85;;;25.50;64.30;;;;;;4812014;29;20054;-75
2022/07/20 10:21:38;;;;;;;14.73;10.38;;;25.50;64.40;;;;;;4827184;29;20117;-73
2022/07/20 10:24:30;;;;;;;18.45;11.05;;;25.50;64.70;;;;;;4826907;29;20066;-73
2022/07/20 10:27:27;;;;;;;28.17;12.23;;;25.50;64.60;;;;;;4827790;29;20450;-73
2022/07/20 10:29:55;;;;;;;18.90;11.27;;;25.50;64.50;;;;;;4827369;29;20090;-73
2022/07/20 10:32:30;;;;;;;22.50;10.48;;;25.50;64.60;;;;;;4826923;29;20411;-73
2022/07/20 10:35:01;;;;;;;27.02;10.45;;;25.50;64.80;;;;;;4827120;29;20046;-74
2022/07/20 10:37:38;;;;;;;21.13;10.57;;;25.40;64.70;;;;;;4827240;29;20065;-74
2022/07/20 10:40:10;;;;;;;28.92;10.25;;;25.40;64.60;;;;;;4827357;29;20058;-74
2022/07/20 10:42:40;;;;;;;18.67;10.10;;;25.40;64.40;;;;;;4826838;29;20094;-76
2022/07/20 10:45:23;;;;;;;20.42;10.75;;;25.40;64.60;;;;;;4826632;29;20413;-74
2022/07/20 10:47:54;;;;;;;24.58;10.18;;;25.40;64.80;;;;;;4843184;29;20069;-75
2022/07/20 10:50:23;;;;;;;15.30;9.05;;;25.40;64.90;;;;;;4838566;29;20054;-74
2022/07/20 10:52:54;;;;;;;17.52;9.60;;;25.40;65.00;;;;;;4826880;29;20050;-75
2022/07/20 10:55:35;;;;;;;17.35;10.07;;;25.40;65.30;;;;;;4826710;29;20051;-76
2022/07/20 10:58:03;;;;;;;17.52;10.02;;;25.40;65.50;;;;;;4825970;29;20383;-75
2022/07/20 11:00:34;;;;;;;20.55;9.85;;;25.40;65.90;;;;;;4826810;29;20077;-74
2022/07/20 11:03:01;;;;;;;19.98;9.40;;;25.40;65.90;;;;;;4826746;29;20054;-77
2022/07/20 11:05:27;;;;;;;15.82;9.45;;;25.40;64.90;;;;;;4825474;29;20355;-76
2022/07/20 11:07:53;;;;;;;11.68;9.38;;;25.40;61.30;;;;;;4827207;29;20057;-76
2022/07/20 11:10:27;;;;;;;14.25;8.55;;;25.50;60.20;;;;;;4825974;29;20061;-80
2022/07/20 11:13:02;;;;;;;13.00;8.75;;;25.50;59.70;;;;;;4820319;29;20046;-77
2022/07/20 11:15:41;;;;;;;22.30;9.45;;;25.50;59.30;;;;;;4844981;29;20114;-76
2022/07/20 11:18:09;;;;;;;12.55;8.93;;;25.60;59.20;;;;;;4844881;29;20118;-74
2022/07/20 11:20:35;;;;;;;15.90;8.68;;;25.50;58.60;;;;;;4841804;29;20469;-74
2022/07/20 11:23:02;;;;;;;15.30;9.30;;;25.50;58.60;;;;;;4838804;29;20054;-73
2022/07/20 11:25:44;;;;;;;13.95;7.85;;;25.50;58.60;;;;;;4844604;29;20125;-73
2022/07/20 11:28:11;;;;;;;18.40;8.88;;;25.50;58.90;;;;;;4844616;29;20361;-74
2022/07/20 11:30:38;;;;;;;12.00;7.60;;;25.50;59.20;;;;;;4842084;29;20069;-72
2022/07/20 11:33:04;;;;;;;11.65;8.30;;;25.50;58.80;;;;;;4825968;29;20051;-73
2022/07/20 11:35:30;;;;;;;11.50;7.40;;;25.50;58.80;;;;;;4825897;29;20125;-73
2022/07/20 11:37:56;;;;;;;12.10;8.10;;;25.50;58.90;;;;;;4826274;29;20375;-72
2022/07/20 11:40:23;;;;;;;13.25;7.45;;;25.50;58.90;;;;;;4826374;29;20038;-72
2022/07/20 11:43:09;;;;;;;14.32;7.05;;;25.50;58.90;;;;;;4826035;29;20054;-74
2022/07/20 11:45:36;;;;;;;13.35;6.85;;;25.50;58.80;;;;;;4825832;29;20105;-72
2022/07/20 11:48:14;;;;;;;11.95;6.55;;;25.40;58.50;;;;;;4826525;29;20047;-72
2022/07/20 11:50:40;;;;;;;12.70;6.28;;;25.40;58.50;;;;;;4826392;29;20091;-72
2022/07/20 11:53:22;;;;;;;10.38;6.40;;;25.40;58.40;;;;;;4826214;29;20379;-73
2022/07/20 11:55:48;;;;;;;10.52;6.05;;;25.40;57.90;;;;;;4825983;29;20046;-72
2022/07/20 11:58:13;;;;;;;9.05;5.93;;;25.40;58.00;;;;;;4826141;29;20114;-73
2022/07/20 12:00:39;;;;;;;10.00;5.70;;;25.40;58.90;;;;;;4826170;29;20353;-73
2022/07/20 12:03:05;;;;;;;8.43;5.60;;;25.40;58.40;;;;;;4825844;29;20050;-74
2022/07/20 12:05:33;;;;;;;8.85;4.70;;;25.40;58.00;;;;;;4826306;29;20046;-73
2022/07/20 12:08:12;;;;;;;7.45;5.10;;;25.40;57.60;;;;;;4825676;29;20402;-75
2022/07/20 12:10:42;;;;;;;6.82;4.68;;;25.40;57.90;;;;;;4829325;29;20339;-75
2022/07/20 12:13:08;;;;;;;9.55;4.97;;;25.40;57.70;;;;;;4829236;29;20083;-73
2022/07/20 12:15:34;;;;;;;6.50;4.90;;;25.40;58.20;;;;;;4830062;29;20353;-72
2022/07/20 12:18:00;;;;;;;8.77;4.93;;;25.40;59.00;;;;;;4829698;29;20058;-72
2022/07/20 12:20:27;;;;;;;9.65;4.82;;;25.40;59.00;;;;;;4828848;29;20401;-72
2022/07/20 12:22:54;;;;;;;11.20;5.63;;;25.40;59.20;;;;;;4828678;29;20083;-72
2022/07/20 12:25:21;;;;;;;7.72;5.03;;;25.40;59.50;;;;;;4829217;29;20061;-72
2022/07/20 12:27:47;;;;;;;8.35;5.05;;;25.40;59.70;;;;;;4829081;29;20058;-73
2022/07/20 12:30:31;;;;;;;8.90;5.72;;;25.40;59.50;;;;;;4829256;29;20060;-73
2022/07/20 12:33:12;;;;;;;13.45;6.10;;;25.40;59.20;;;;;;4828864;29;20057;-73
2022/07/20 12:35:40;;;;;;;11.00;6.05;;;25.40;58.80;;;;;;4829087;29;20057;-73
2022/07/20 12:38:06;;;;;;;10.00;5.72;;;25.40;59.00;;;;;;4829385;29;20114;-73
2022/07/20 12:40:52;;;;;;;12.98;6.25;;;25.40;59.70;;;;;;4834447;29;20400;-74
2022/07/20 12:43:34;;;;;;;14.95;6.60;;;25.40;59.60;;;;;;4842489;29;20053;-76
2022/07/20 12:46:08;;;;;;;10.88;6.18;;;25.40;60.10;;;;;;4828777;29;20133;-76
2022/07/20 12:48:35;;;;;;;16.92;7.03;;;25.40;59.50;;;;;;4828973;29;20065;-77
2022/07/20 12:51:01;;;;;;;13.43;6.80;;;25.40;59.00;;;;;;4829245;29;20127;-76
2022/07/20 12:53:28;;;;;;;11.73;7.70;;;25.50;59.10;;;;;;4828381;29;20359;-77
2022/07/20 12:55:54;;;;;;;11.13;6.95;;;25.50;59.10;;;;;;4845042;29;20061;-76
2022/07/20 12:58:20;;;;;;;15.13;8.05;;;25.60;59.50;;;;;;4847754;29;20077;-76
2022/07/20 13:00:46;;;;;;;18.73;9.43;;;25.60;59.90;;;;;;4846276;29;20046;-77
2022/07/20 13:03:11;;;;;;;13.07;7.72;;;25.70;59.90;;;;;;4831656;29;20064;-77
2022/07/20 13:05:40;;;;;;;17.95;8.18;;;25.70;60.10;;;;;;4828462;29;20062;-77
2022/07/20 13:08:06;;;;;;;17.10;8.65;;;25.70;60.30;;;;;;4828248;29;20054;-77
2022/07/20 13:10:32;;;;;;;23.23;8.43;;;25.70;60.70;;;;;;4828507;29;20054;-76
2022/07/20 13:12:57;;;;;;;21.40;8.65;;;25.70;61.10;;;;;;4828486;29;20109;-76
2022/07/20 13:15:24;;;;;;;17.88;8.10;;;25.70;61.30;;;;;;4828381;29;20384;-76
2022/07/20 13:17:50;;;;;;;19.60;10.40;;;25.60;61.60;;;;;;4827944;29;20178;-76
2022/07/20 13:20:16;;;;;;;24.42;10.07;;;25.60;62.70;;;;;;4827637;29;20058;-80
2022/07/20 13:22:42;;;;;;;17.73;10.30;;;25.60;63.00;;;;;;4828853;29;20061;-79
2022/07/20 13:25:08;;;;;;;18.17;10.73;;;25.60;63.70;;;;;;4828410;29;20055;-75
2022/07/20 13:27:35;;;;;;;18.27;10.18;;;25.60;63.80;;;;;;4827832;29;20057;-75
2022/07/20 13:30:01;;;;;;;19.25;11.13;;;25.60;63.60;;;;;;4827634;29;20058;-75
2022/07/20 13:32:27;;;;;;;20.48;11.15;;;25.60;63.50;;;;;;4828418;29;20097;-75
2022/07/20 13:34:53;;;;;;;13.75;9.60;;;25.60;64.10;;;;;;4828350;29;20331;-75
2022/07/20 13:37:18;;;;;;;15.80;9.93;;;25.60;64.20;;;;;;4827769;29;20058;-75
2022/07/20 13:39:44;;;;;;;19.13;8.95;;;25.60;63.70;;;;;;4827897;29;20110;-73
2022/07/20 13:42:10;;;;;;;17.67;9.90;;;25.70;63.70;;;;;;4827885;29;20046;-76
2022/07/20 13:44:37;;;;;;;13.48;8.77;;;25.70;63.50;;;;;;4829858;29;20534;-74
2022/07/20 13:47:03;;;;;;;15.25;9.43;;;25.60;63.20;;;;;;4827701;29;20061;-75
2022/07/20 13:49:29;;;;;;;12.23;8.80;;;25.60;63.10;;;;;;4828443;29;20057;-76
2022/07/20 13:51:55;;;;;;;14.52;8.38;;;25.60;62.60;;;;;;4827597;29;20054;-75
2022/07/20 13:54:21;;;;;;;15.55;8.68;;;25.60;62.30;;;;;;4827649;29;20102;-75
2022/07/20 13:56:47;;;;;;;14.20;8.60;;;25.60;62.60;;;;;;4842181;29;20049;-75
2022/07/20 13:59:13;;;;;;;15.23;9.63;;;25.70;62.80;;;;;;4846477;29;20054;-76
2022/07/20 14:01:45;;;;;;;15.05;8.18;;;25.70;62.90;;;;;;4841054;29;20496;-76
2022/07/20 14:04:12;;;;;;;15.30;8.20;;;25.60;62.80;;;;;;4827756;29;20378;-74
2022/07/20 14:06:39;;;;;;;14.15;7.63;;;25.70;62.70;;;;;;4827854;29;20054;-75
2022/07/20 14:09:06;;;;;;;12.68;7.97;;;25.70;62.40;;;;;;4827449;29;20046;-76
2022/07/20 14:11:32;;;;;;;15.52;7.45;;;25.60;61.90;;;;;;4826943;29;20050;-75
2022/07/20 14:13:58;;;;;;;10.85;6.55;;;25.60;61.80;;;;;;4827476;29;20050;-78
2022/07/20 14:16:23;;;;;;;12.95;7.45;;;25.60;61.00;;;;;;4827502;29;20191;-76
2022/07/20 14:18:49;;;;;;;14.40;5.70;;;25.60;61.60;;;;;;4827410;29;20046;-75
2022/07/20 14:21:15;;;;;;;12.10;6.07;;;25.60;59.80;;;;;;4827211;29;20062;-75
2022/07/20 14:23:47;;;;;;;8.55;5.82;;;25.60;59.30;;;;;;4811059;29;20390;-72
2022/07/20 14:26:13;;;;;;;8.90;5.57;;;25.60;59.40;;;;;;4827108;29;20057;-75
2022/07/20 14:28:39;;;;;;;10.77;5.45;;;25.60;59.90;;;;;;4827596;29;20396;-75
2022/07/20 14:31:05;;;;;;;12.30;5.25;;;25.50;60.90;;;;;;4826937;29;20166;-74
2022/07/20 14:33:31;;;;;;;10.77;5.63;;;25.50;61.40;;;;;;4826958;29;20096;-77
2022/07/20 14:35:57;;;;;;;13.57;5.85;;;25.60;61.80;;;;;;4827325;29;20054;-79
2022/07/20 14:38:22;;;;;;;10.52;5.55;;;25.50;62.00;;;;;;4827398;29;20386;-78
2022/07/20 14:40:48;;;;;;;8.90;5.90;;;25.60;62.40;;;;;;4827069;29;20458;-75
2022/07/20 14:43:14;;;;;;;10.77;5.90;;;25.60;62.70;;;;;;4814205;29;20042;-75
2022/07/20 14:45:40;;;;;;;14.90;6.82;;;25.60;62.80;;;;;;4827228;29;20058;-75
2022/07/20 14:48:06;;;;;;;10.75;6.07;;;25.60;62.90;;;;;;4827514;29;20062;-75
2022/07/20 14:50:31;;;;;;;9.18;5.95;;;25.60;63.10;;;;;;4827230;29;20126;-76
2022/07/20 14:52:57;;;;;;;7.63;5.32;;;25.60;63.10;;;;;;4826574;29;20043;-75
2022/07/20 14:55:23;;;;;;;8.00;5.50;;;25.60;63.10;;;;;;4826780;29;20050;-76
2022/07/20 14:57:50;;;;;;;10.57;6.32;;;25.60;63.20;;;;;;4826662;29;20046;-74
2022/07/20 15:00:16;;;;;;;9.38;5.70;;;25.60;62.50;;;;;;4826526;29;20061;-77
2022/07/20 15:02:43;;;;;;;9.38;5.78;;;25.60;62.30;;;;;;4826811;29;20086;-76
2022/07/20 15:05:08;;;;;;;9.98;5.60;;;25.60;61.80;;;;;;4826676;29;20054;-75
2022/07/20 15:07:37;;;;;;;10.00;6.10;;;25.60;61.60;;;;;;4825743;29;20133;-77
2022/07/20 15:10:05;;;;;;;10.20;5.95;;;25.60;61.80;;;;;;4815930;29;20478;-78
2022/07/20 15:12:31;;;;;;;10.43;5.97;;;25.60;62.00;;;;;;4825714;29;20522;-71
2022/07/20 15:14:57;;;;;;;12.63;6.10;;;25.60;61.70;;;;;;4834392;29;20434;-72
2022/07/20 15:17:23;;;;;;;9.48;6.18;;;25.60;61.40;;;;;;4826802;29;20133;-77
2022/07/20 15:19:48;;;;;;;11.63;6.20;;;25.50;61.00;;;;;;4843221;29;20054;-77
2022/07/20 15:22:14;;;;;;;10.82;7.45;;;25.40;61.00;;;;;;4845042;29;20053;-77
2022/07/20 15:24:40;;;;;;;8.85;6.70;;;25.40;61.10;;;;;;4844283;29;20488;-76
2022/07/20 15:27:06;;;;;;;15.15;7.28;;;25.40;61.50;;;;;;4828844;29;20466;-76
2022/07/20 15:29:32;;;;;;;10.85;5.90;;;25.40;62.00;;;;;;4844944;29;20385;-82
2022/07/20 15:31:58;;;;;;;14.10;6.43;;;25.40;61.70;;;;;;4811150;29;20076;-78
2022/07/20 16:52:46;;;;;;;6.55;1.70;;;25.60;56.80;;;;;;4803388;29;20066;-75
2022/07/20 16:55:12;;;;;;;3.63;1.40;;;25.60;56.40;;;;;;4807226;29;20062;-74
2022/07/20 16:57:37;;;;;;;7.10;1.42;;;25.60;55.20;;;;;;4810399;29;20050;-75
2022/07/20 17:00:09;;;;;;;3.92;1.50;;;25.50;55.20;;;;;;4778361;29;20551;-74
2022/07/20 17:02:35;;;;;;;3.53;1.60;;;25.60;54.90;;;;;;4808410;29;20142;-74
2022/07/20 17:05:01;;;;;;;3.95;1.58;;;25.50;56.20;;;;;;4810239;29;20129;-73
2022/07/20 17:07:27;;;;;;;3.90;1.25;;;25.50;56.40;;;;;;4810672;29;20077;-74
2022/07/20 18:13:20;;;;;;;6.57;1.63;;;25.70;60.20;;;;;;5665784;24;20054;-72
2022/07/20 18:15:46;;;;;;;4.75;1.75;;;25.70;60.00;;;;;;4846968;29;20045;-72
2022/07/20 18:18:11;;;;;;;5.47;2.22;;;25.60;59.50;;;;;;4864310;29;20050;-73
2022/07/20 18:20:37;;;;;;;7.15;2.28;;;25.60;59.40;;;;;;4852502;29;20045;-73
2022/07/20 18:23:03;;;;;;;5.35;2.45;;;25.50;58.70;;;;;;4845246;29;20108;-73
2022/07/20 18:25:30;;;;;;;7.60;2.17;;;25.50;58.40;;;;;;4845472;29;20050;-71
2022/07/20 18:27:56;;;;;;;5.95;2.50;;;25.40;58.30;;;;;;4846020;29;20053;-75
2022/07/20 18:30:21;;;;;;;7.65;2.20;;;25.40;59.00;;;;;;4845640;29;20441;-74
2022/07/20 18:32:47;;;;;;;6.25;2.33;;;25.40;59.10;;;;;;4845205;29;20528;-73
2022/07/20 18:35:13;;;;;;;7.22;2.53;;;25.30;59.30;;;;;;4863082;29;20072;-76
2022/07/20 18:37:39;;;;;;;6.55;2.30;;;25.30;59.20;;;;;;4858478;29;20049;-74
2022/07/20 18:40:06;;;;;;;7.22;2.60;;;25.30;59.20;;;;;;4845317;29;20053;-75
2022/07/20 18:42:33;;;;;;;7.57;2.28;;;25.20;59.10;;;;;;4845173;29;20141;-73
2022/07/20 18:45:00;;;;;;;8.50;2.47;;;25.30;59.30;;;;;;4845203;29;20050;-75
2022/07/20 18:47:26;;;;;;;7.65;2.65;;;25.20;59.60;;;;;;4845272;29;20132;-74
2022/07/20 18:49:52;;;;;;;6.68;2.17;;;25.20;60.40;;;;;;4844880;29;20050;-74
2022/07/20 18:52:18;;;;;;;5.45;2.80;;;25.10;60.30;;;;;;4844946;29;20426;-75
2022/07/20 18:54:44;;;;;;;11.45;3.35;;;25.10;60.50;;;;;;4845476;29;20050;-75
2022/07/20 18:57:09;;;;;;;7.00;2.88;;;25.00;60.70;;;;;;4844814;29;20390;-80
2022/07/20 18:59:36;;;;;;;8.40;3.38;;;25.00;60.70;;;;;;4844025;29;20465;-77
2022/07/20 19:02:02;;;;;;;8.18;3.20;;;24.90;60.60;;;;;;4859325;29;20086;-77
2022/07/20 19:04:28;;;;;;;7.63;2.80;;;24.90;60.80;;;;;;4844877;29;20096;-75
2022/07/20 19:06:54;;;;;;;8.02;3.28;;;24.80;60.80;;;;;;4845112;29;20058;-77
2022/07/20 19:09:20;;;;;;;7.68;3.42;;;24.80;60.70;;;;;;4844365;29;20076;-76
2022/07/20 19:11:45;;;;;;;9.88;2.90;;;24.80;60.70;;;;;;4844426;29;20046;-76
2022/07/20 19:14:11;;;;;;;5.47;3.13;;;24.70;60.90;;;;;;4861143;29;20476;-75
2022/07/20 19:16:38;;;;;;;6.03;3.22;;;24.70;61.00;;;;;;4881772;29;20068;-76
2022/07/20 19:19:04;;;;;;;6.70;2.85;;;24.70;61.10;;;;;;4880483;29;20041;-78
2022/07/20 19:21:30;;;;;;;8.05;3.17;;;24.60;61.20;;;;;;4881142;29;20048;-75
2022/07/20 19:23:56;;;;;;;7.57;3.50;;;24.60;61.30;;;;;;4880006;29;20053;-80
2022/07/20 19:26:22;;;;;;;6.78;3.40;;;24.50;61.50;;;;;;4863387;29;20041;-74
2022/07/20 19:28:48;;;;;;;7.53;3.47;;;24.50;61.70;;;;;;4880749;29;20085;-74
2022/07/20 19:31:14;;;;;;;6.07;3.10;;;24.50;61.60;;;;;;4881360;29;20076;-74
2022/07/20 19:33:40;;;;;;;6.85;3.25;;;24.50;61.70;;;;;;4881234;29;20045;-74
2022/07/20 19:36:06;;;;;;;6.68;3.78;;;24.40;61.90;;;;;;4881183;29;20385;-74
2022/07/20 19:38:32;;;;;;;8.02;3.20;;;24.40;62.10;;;;;;4881097;29;20041;-74
2022/07/20 19:40:58;;;;;;;7.55;3.55;;;24.40;62.00;;;;;;4880733;29;20429;-74
2022/07/20 19:43:23;;;;;;;11.05;3.95;;;24.40;62.30;;;;;;4881312;29;20056;-75
2022/07/20 19:45:49;;;;;;;9.82;4.55;;;24.30;62.30;;;;;;4881385;29;20048;-74
2022/07/20 19:48:15;;;;;;;6.88;3.72;;;24.30;62.50;;;;;;4880602;29;20053;-74
2022/07/20 19:50:41;;;;;;;7.20;3.75;;;24.30;62.60;;;;;;4881314;29;20361;-74
2022/07/20 19:53:07;;;;;;;7.03;3.85;;;24.30;62.60;;;;;;4881599;29;20085;-74
2022/07/20 19:55:33;;;;;;;6.63;3.38;;;24.20;63.30;;;;;;4881481;29;20049;-75
2022/07/20 19:57:59;;;;;;;7.28;4.05;;;24.20;62.60;;;;;;4881177;29;20060;-74
2022/07/20 20:00:26;;;;;;;9.25;3.80;;;24.20;62.60;;;;;;4885375;29;20139;-73
2022/07/20 20:02:52;;;;;;;7.00;4.00;;;24.20;62.60;;;;;;4884193;29;20053;-74
2022/07/20 20:05:18;;;;;;;6.40;4.03;;;24.10;62.60;;;;;;4880931;29;20081;-73
2022/07/20 20:07:43;;;;;;;7.38;4.13;;;24.10;62.30;;;;;;4881259;29;20063;-75
2022/07/20 20:10:09;;;;;;;10.52;4.57;;;24.10;62.30;;;;;;4880996;29;20048;-74
2022/07/20 20:12:35;;;;;;;7.20;4.15;;;24.10;62.30;;;;;;4880347;29;20064;-74
2022/07/20 20:15:04;;;;;;;7.10;4.25;;;24.10;62.40;;;;;;4880678;29;20140;-74
2022/07/20 20:17:30;;;;;;;11.77;5.05;;;24.00;62.40;;;;;;4881228;29;20200;-74
2022/07/20 20:19:56;;;;;;;8.52;5.07;;;24.00;62.30;;;;;;4881466;29;20376;-74
2022/07/20 20:22:21;;;;;;;9.63;5.53;;;24.00;62.30;;;;;;4880940;29;20045;-74
2022/07/20 20:24:47;;;;;;;9.77;5.43;;;24.00;62.30;;;;;;4880411;29;20052;-74
2022/07/20 20:27:13;;;;;;;8.55;5.50;;;24.00;62.40;;;;;;4880906;29;20136;-74
2022/07/20 20:29:39;;;;;;;10.75;5.85;;;24.00;62.30;;;;;;4882019;29;20053;-75
2022/07/20 20:32:05;;;;;;;10.38;5.60;;;23.90;62.40;;;;;;4867886;29;20077;-74
2022/07/20 20:34:31;;;;;;;11.30;6.40;;;23.90;62.50;;;;;;4884363;29;20089;-74
2022/07/20 20:36:57;;;;;;;7.90;5.93;;;23.90;62.50;;;;;;4884461;29;20045;-74
2022/07/20 20:39:23;;;;;;;11.20;7.07;;;23.90;62.60;;;;;;4884133;29;20084;-74
2022/07/20 20:41:49;;;;;;;10.48;5.97;;;23.90;62.70;;;;;;4884119;29;20487;-74
2022/07/20 20:44:16;;;;;;;13.02;7.05;;;23.90;62.70;;;;;;4884347;29;20081;-74
2022/07/20 20:46:42;;;;;;;10.02;6.50;;;23.90;62.70;;;;;;4868087;29;20053;-74
2022/07/20 20:49:07;;;;;;;12.20;6.50;;;23.80;62.70;;;;;;4883950;29;20059;-74
2022/07/20 20:51:34;;;;;;;9.25;6.65;;;23.80;62.80;;;;;;4883523;29;20131;-75
2022/07/20 20:54:01;;;;;;;10.35;6.70;;;23.80;62.80;;;;;;4884368;29;20045;-74
2022/07/20 20:56:28;;;;;;;9.27;6.82;;;23.80;62.70;;;;;;4884309;29;20132;-74
2022/07/20 20:58:55;;;;;;;11.57;7.55;;;23.80;62.80;;;;;;4884008;29;20049;-76